Impacts METAR Board
IDs:

KDEN - Denver Intl, CO, US

Updated at: 0300 UTC 17 Jul 2018
Potential Impact None Slight Moderate High
Time 16/15Z 16/16Z 16/17Z 16/18Z 16/19Z 16/20Z 16/21Z 16/22Z 16/23Z 17/00Z 17/01Z 17/02Z 17/03Z
Temp65 68 72 74 78 83 87 88 89 87 70 73 71
Dewpt58 58 59 60 61 61 54 54 50 55 60 60 61
Altim30.26 30.26 30.25 30.26 30.24 30.22 30.20 30.17 30.16 30.16 30.18 30.19 30.20
VIS9 10 10 9 10 10 10 10 10 10 4 10 10
CIG11 -- -- -- -- -- -- -- -- 130 80 140 160
CoverBKNSCTSCTSCTSCTSCTSCTSCTSCTBKNBKNBKNBKN
FltCatMVFRVFRVFRVFRVFRVFRVFRVFRVFRVFRMVFRVFRVFR
WX---------------------TSRA----
WDir260280504080008090802000190
WSpd8 6 3 7 6 5 3 4 6 9 3 0 5
WGst-- -- -- -- -- -- -- -- -- -- -- -- --
Raw hourly METARs
KDEN 161453Z 26008KT 9SM BKN011 18/14 A3026 RMK AO2 SLP184 T01830144 50004 $
KDEN 161553Z 28006KT 10SM SCT015 SCT120 20/14 A3026 RMK AO2 SLP181 T02000144 $
KDEN 161653Z 05003KT 10SM FEW015 FEW110 SCT200 22/15 A3025 RMK AO2 SLP177 T02220150 $
KDEN 161753Z 04007KT 9SM FEW030 SCT060 SCT220 23/16 A3026 RMK AO2 SLP176 T02330156 10239 20156 55000 $
KDEN 161853Z 08006KT 10SM FEW030 SCT060 SCT220 26/16 A3024 RMK AO2 SLP170 T02560161 $
KDEN 161953Z VRB05KT 10SM SCT060 SCT120 SCT220 28/16 A3022 RMK AO2 SLP158 T02830161 $
KDEN 162053Z VRB03KT 10SM SCT070 SCT120 SCT220 31/12 A3020 RMK AO2 SLP144 T03060122 58017 $
KDEN 162153Z 08004KT 10SM FEW080 FEW160 SCT220 31/12 A3017 RMK AO2 SLP135 TCU DSNT SE-S T03110122 $
KDEN 162253Z 09006KT 10SM FEW080 FEW160 SCT220 32/10 A3016 RMK AO2 SLP130 TCU DSNT SE-S T03170100 $
KDEN 162353Z 08009KT 10SM SCT080 BKN130 BKN220 31/13 A3016 RMK AO2 SLP131 T03060128 10328 20233 55010 $
KDEN 170053Z 20003KT 4SM R35L/1600V2800FT -TSRA FEW060 BKN080CB BKN130 BKN220 21/16 A3018 RMK AO2 PK WND 15043/0053 WSHFT 0026 LTG DSNT NE AND S RAB13 TSB20 SLP154 CONS LTGICCG SE-S TS SE-S MOV STDY P0007 T02110156 $
KDEN 170153Z 00000KT 10SM SCT080 BKN140 BKN220 23/16 A3019 RMK AO2 PK WND 12029/0057 LTG DSNT E-SW RAE19 TSE13B19E20 SLP154 TS MOVD E P0000 T02280156 $
KDEN 170253Z 19005KT 10SM FEW100 BKN160 22/16 A3020 RMK AO2 SLP155 60007 T02170161 51010 $



Page loaded:  03:45 UTC  |   08:45 PM Pacific  |   09:45 PM Mountain  |   10:45 PM Central  |   11:45 PM Eastern

 

ADVISORIES

FORECASTS

FORECASTS

OBSERVATIONS

USER TOOLS

ABOUT US